createdAt,value
2022-09-28T00:00:26.675Z,20.81
2022-09-28T00:01:26.789Z,20.88
2022-09-28T00:02:27.110Z,20.87
2022-09-28T00:03:26.770Z,20.85
2022-09-28T00:04:26.801Z,20.82
2022-09-28T00:05:26.827Z,20.82
2022-09-28T00:06:26.876Z,20.73
2022-09-28T00:07:26.882Z,20.82
2022-09-28T00:08:26.918Z,20.85
2022-09-28T00:09:27.246Z,20.78
2022-09-28T00:10:26.971Z,20.82
2022-09-28T00:11:27.005Z,20.88
2022-09-28T00:12:27.031Z,20.83
2022-09-28T00:13:27.063Z,20.85
2022-09-28T00:14:27.090Z,20.81
2022-09-28T00:15:27.120Z,20.81
2022-09-28T00:16:27.542Z,20.83
2022-09-28T00:17:27.185Z,20.83
2022-09-28T00:18:27.226Z,20.82
2022-09-28T00:19:27.251Z,20.83
2022-09-28T00:20:27.272Z,20.76
2022-09-28T00:21:27.304Z,20.81
2022-09-28T00:22:27.351Z,20.83
2022-09-28T00:23:27.669Z,20.82
2022-09-28T00:24:27.866Z,20.82
2022-09-28T00:25:27.422Z,20.79
2022-09-28T00:26:27.468Z,20.82
2022-09-28T00:27:27.488Z,20.73
2022-09-28T00:28:27.515Z,20.81
2022-09-28T00:29:27.542Z,20.69
2022-09-28T00:30:27.872Z,20.76
2022-09-28T00:31:27.675Z,20.78
2022-09-28T00:32:27.665Z,20.79
2022-09-28T00:33:27.665Z,20.71
2022-09-28T00:34:27.691Z,20.78
2022-09-28T00:35:27.720Z,20.69
2022-09-28T00:36:28.075Z,20.72
2022-09-28T00:37:27.784Z,20.83
2022-09-28T00:38:27.835Z,20.81
2022-09-28T00:39:27.845Z,20.83
2022-09-28T00:40:27.910Z,20.75
2022-09-28T00:41:27.904Z,20.75
2022-09-28T00:42:28.234Z,20.75
2022-09-28T00:43:27.965Z,20.73
2022-09-28T00:44:27.992Z,20.73
2022-09-28T00:45:28.254Z,20.71
2022-09-28T00:46:28.058Z,20.72
2022-09-28T00:47:28.089Z,20.71
2022-09-28T00:48:28.416Z,20.68
2022-09-28T00:49:28.145Z,20.71
2022-09-28T00:50:28.175Z,20.72
2022-09-28T00:51:28.209Z,20.72
2022-09-28T00:52:28.234Z,20.76
2022-09-28T00:53:28.268Z,20.68
2022-09-28T00:54:28.313Z,20.71
2022-09-28T00:55:28.642Z,20.69
2022-09-28T00:56:28.357Z,20.73
2022-09-28T00:57:28.435Z,20.72
2022-09-28T00:58:28.421Z,20.68
2022-09-28T00:59:28.446Z,20.69
2022-09-28T01:00:28.634Z,20.69
2022-09-28T01:01:28.524Z,20.73
2022-09-28T01:02:28.911Z,20.71
2022-09-28T01:03:28.570Z,20.78
2022-09-28T01:04:30.028Z,20.71
2022-09-28T01:05:28.626Z,20.71
2022-09-28T01:06:28.653Z,20.69
2022-09-28T01:07:28.683Z,20.76
2022-09-28T01:08:28.713Z,20.68
2022-09-28T01:09:29.044Z,20.66
2022-09-28T01:10:28.791Z,20.68
2022-09-28T01:11:28.808Z,20.64
2022-09-28T01:12:28.833Z,20.69
2022-09-28T01:13:28.868Z,20.71
2022-09-28T01:14:28.892Z,20.72
2022-09-28T01:15:28.925Z,20.60
2022-09-28T01:16:29.322Z,20.73
2022-09-28T01:17:28.983Z,20.66
2022-09-28T01:18:29.010Z,20.72
2022-09-28T01:19:29.081Z,20.61
2022-09-28T01:20:29.074Z,20.68
2022-09-28T01:21:29.103Z,20.73
2022-09-28T01:22:29.137Z,20.73
2022-09-28T01:23:29.465Z,20.73
2022-09-28T01:24:29.194Z,20.73
2022-09-28T01:25:29.246Z,20.60
2022-09-28T01:26:29.274Z,20.72
2022-09-28T01:27:29.334Z,20.61
2022-09-28T01:28:29.313Z,20.60
2022-09-28T01:29:29.344Z,20.60
2022-09-28T01:30:29.669Z,20.66
2022-09-28T01:31:29.505Z,20.57
2022-09-28T01:32:29.432Z,20.69
2022-09-28T01:33:29.464Z,20.60
2022-09-28T01:34:29.506Z,20.68
2022-09-28T01:35:29.520Z,20.61
2022-09-28T01:36:29.557Z,20.61
2022-09-28T01:37:29.884Z,20.57
2022-09-28T01:38:29.617Z,20.63
2022-09-28T01:39:29.649Z,20.63
2022-09-28T01:40:29.721Z,20.66
2022-09-28T01:41:29.704Z,20.57
2022-09-28T01:42:29.752Z,20.58
2022-09-28T01:43:29.764Z,20.56
2022-09-28T01:44:30.093Z,20.58
2022-09-28T01:45:29.840Z,20.57
2022-09-28T01:46:29.851Z,20.60
2022-09-28T01:47:29.880Z,20.61
2022-09-28T01:48:29.915Z,20.58
2022-09-28T01:49:29.938Z,20.66
2022-09-28T01:50:29.977Z,20.58
2022-09-28T01:51:30.304Z,20.60
2022-09-28T01:52:30.041Z,20.60
2022-09-28T01:53:30.350Z,20.60
2022-09-28T01:54:30.091Z,20.57
2022-09-28T01:55:30.124Z,20.57
2022-09-28T01:56:30.155Z,20.64
2022-09-28T01:57:30.178Z,20.57
2022-09-28T01:58:30.536Z,20.58
2022-09-28T01:59:30.240Z,20.57
2022-09-28T02:00:30.344Z,20.63
2022-09-28T02:01:30.305Z,20.54
2022-09-28T02:02:30.382Z,20.53
2022-09-28T02:03:30.397Z,20.60
2022-09-28T02:04:30.391Z,20.54
2022-09-28T02:05:30.744Z,20.58
2022-09-28T02:06:30.450Z,20.60
2022-09-28T02:07:30.480Z,20.54
2022-09-28T02:08:30.512Z,20.54
2022-09-28T02:09:33.719Z,20.60
2022-09-28T02:10:30.578Z,20.56
2022-09-28T02:11:30.601Z,20.60
2022-09-28T02:12:30.929Z,20.44
2022-09-28T02:13:30.674Z,20.57
2022-09-28T02:14:30.721Z,20.48
2022-09-28T02:15:30.726Z,20.56
2022-09-28T02:16:30.850Z,20.56
2022-09-28T02:17:30.778Z,20.53
2022-09-28T02:18:30.812Z,20.56
2022-09-28T02:19:31.141Z,20.48
2022-09-28T02:20:30.871Z,20.56
2022-09-28T02:21:30.898Z,20.42
2022-09-28T02:22:30.927Z,20.42
2022-09-28T02:23:30.976Z,20.46
2022-09-28T02:24:30.990Z,20.44
2022-09-28T02:25:31.016Z,20.53
2022-09-28T02:26:31.348Z,20.42
2022-09-28T02:27:31.084Z,20.46
2022-09-28T02:28:31.122Z,20.46
2022-09-28T02:29:31.147Z,20.48
2022-09-28T02:30:31.354Z,20.50
2022-09-28T02:31:31.985Z,20.44
2022-09-28T02:32:31.529Z,20.42
2022-09-28T02:33:31.254Z,20.42
2022-09-28T02:34:31.286Z,20.46
2022-09-28T02:35:31.316Z,20.41
2022-09-28T02:36:31.352Z,20.50
2022-09-28T02:37:31.377Z,20.46
2022-09-28T02:38:31.706Z,20.46
2022-09-28T02:41:31.496Z,20.46
2022-09-28T02:42:31.529Z,20.46
2022-09-28T02:43:31.556Z,20.53
2022-09-28T02:44:31.885Z,20.40
2022-09-28T02:45:31.732Z,20.44
2022-09-28T02:46:31.680Z,20.42
2022-09-28T02:47:31.674Z,20.50
2022-09-28T02:48:55.792Z,20.44
2022-09-28T02:49:31.924Z,20.44
2022-09-28T02:50:31.767Z,20.48
2022-09-28T02:51:32.095Z,20.48
2022-09-28T02:52:31.830Z,20.46
2022-09-28T02:53:31.932Z,20.48
2022-09-28T02:54:31.890Z,20.50
2022-09-28T02:55:31.913Z,20.46
2022-09-28T02:56:31.947Z,20.41
2022-09-28T02:57:31.975Z,20.42
2022-09-28T02:58:32.306Z,20.46
2022-09-28T02:59:32.041Z,20.46
2022-09-28T03:00:32.146Z,20.50
2022-09-28T03:01:32.092Z,20.48
2022-09-28T03:02:32.196Z,20.44
2022-09-28T03:03:32.148Z,20.46
2022-09-28T03:04:32.181Z,20.42
2022-09-28T03:05:32.512Z,20.46
2022-09-28T03:06:32.244Z,20.48
2022-09-28T03:07:32.271Z,20.41
2022-09-28T03:08:32.316Z,20.44
2022-09-28T03:09:32.329Z,20.48
2022-09-28T03:10:32.362Z,20.48
2022-09-28T03:11:32.402Z,20.44
2022-09-28T03:12:32.725Z,20.50
2022-09-28T03:13:32.449Z,20.44
2022-09-28T03:14:32.482Z,20.48
2022-09-28T03:15:32.509Z,20.44
2022-09-28T03:16:32.603Z,20.46
2022-09-28T03:17:32.572Z,20.46
2022-09-28T03:18:32.630Z,20.38
2022-09-28T03:19:32.936Z,20.46
2022-09-28T03:20:32.658Z,20.44
2022-09-28T03:21:32.688Z,20.48
2022-09-28T03:22:32.722Z,20.46
2022-09-28T03:23:32.743Z,20.44
2022-09-28T03:24:32.797Z,20.44
2022-09-28T03:25:32.805Z,20.41
2022-09-28T03:26:33.166Z,20.48
2022-09-28T03:27:32.863Z,20.41
2022-09-28T03:28:32.899Z,20.35
2022-09-28T03:29:32.926Z,20.42
2022-09-28T03:30:32.956Z,20.42
2022-09-28T03:31:33.072Z,20.41
2022-09-28T03:32:33.015Z,20.42
2022-09-28T03:33:33.348Z,20.38
2022-09-28T03:34:33.096Z,20.42
2022-09-28T03:35:33.104Z,20.38
2022-09-28T03:36:33.152Z,20.44
2022-09-28T03:37:33.165Z,20.42
2022-09-28T03:38:33.198Z,20.41
2022-09-28T03:39:33.222Z,20.44
2022-09-28T03:40:33.614Z,20.40
2022-09-28T03:41:33.288Z,20.33
2022-09-28T03:42:33.321Z,20.38
2022-09-28T03:43:33.342Z,20.38
2022-09-28T03:44:33.377Z,20.35
2022-09-28T03:45:33.493Z,20.41
2022-09-28T03:46:33.443Z,20.35
2022-09-28T03:47:33.767Z,20.38
2022-09-28T03:48:33.491Z,20.38
2022-09-28T03:49:33.531Z,20.38
2022-09-28T03:50:33.572Z,20.42
2022-09-28T03:51:33.578Z,20.35
2022-09-28T03:52:33.615Z,20.40
2022-09-28T03:53:33.643Z,20.35
2022-09-28T03:54:33.971Z,20.38
2022-09-28T03:55:33.698Z,20.37
2022-09-28T03:56:33.738Z,20.40
2022-09-28T03:57:33.765Z,20.33
2022-09-28T03:58:33.801Z,20.41
2022-09-28T03:59:33.919Z,20.35
2022-09-28T04:00:33.899Z,20.41
2022-09-28T04:01:34.232Z,20.33
2022-09-28T04:02:33.976Z,20.37
2022-09-28T04:03:33.939Z,20.33
2022-09-28T04:04:33.968Z,20.35
2022-09-28T04:05:33.998Z,20.38
2022-09-28T04:06:34.049Z,20.31
2022-09-28T04:07:34.059Z,20.33
2022-09-28T04:08:34.389Z,20.34
2022-09-28T04:09:34.153Z,20.34
2022-09-28T04:10:34.146Z,20.35
2022-09-28T04:11:42.932Z,20.35
2022-09-28T04:12:34.231Z,20.34
2022-09-28T04:13:34.255Z,20.34
2022-09-28T04:14:34.263Z,20.33
2022-09-28T04:15:34.595Z,20.34
2022-09-28T04:16:34.385Z,20.27
2022-09-28T04:17:39.174Z,20.30
2022-09-28T04:18:34.385Z,20.37
2022-09-28T04:19:34.413Z,20.30
2022-09-28T04:20:34.451Z,20.33
2022-09-28T04:21:34.778Z,20.31
2022-09-28T04:22:34.523Z,20.31
2022-09-28T04:23:34.542Z,20.30
2022-09-28T04:24:34.564Z,20.35
2022-09-28T04:25:34.593Z,20.33
2022-09-28T04:26:34.654Z,20.31
2022-09-28T04:27:34.957Z,20.33
2022-09-28T04:28:34.687Z,20.30
2022-09-28T04:29:34.722Z,20.31
2022-09-28T04:30:34.768Z,20.37
2022-09-28T04:31:34.812Z,20.26
2022-09-28T04:32:34.807Z,20.26
2022-09-28T04:33:35.135Z,20.26
2022-09-28T04:34:37.143Z,20.31
2022-09-28T04:35:34.900Z,20.35
2022-09-28T04:36:34.923Z,20.30
2022-09-28T04:37:34.953Z,20.31
2022-09-28T04:38:52.277Z,20.34
2022-09-28T04:39:35.008Z,20.27
2022-09-28T04:40:35.403Z,20.33
2022-09-28T04:41:35.066Z,20.26
2022-09-28T04:42:35.114Z,20.30
2022-09-28T04:43:35.131Z,20.30
2022-09-28T04:44:35.162Z,20.26
2022-09-28T04:45:35.210Z,20.30
2022-09-28T04:46:35.228Z,20.33
2022-09-28T04:47:35.548Z,20.30
2022-09-28T04:48:35.279Z,20.33
2022-09-28T04:49:35.304Z,20.26
2022-09-28T04:50:35.348Z,20.25
2022-09-28T04:51:35.363Z,20.25
2022-09-28T04:52:35.395Z,20.31
2022-09-28T04:53:35.435Z,20.31
2022-09-28T04:54:35.780Z,20.22
2022-09-28T04:55:35.514Z,20.22
2022-09-28T04:56:35.572Z,20.23
2022-09-28T04:57:35.551Z,20.23
2022-09-28T04:58:35.584Z,20.25
2022-09-28T04:59:35.607Z,20.30
2022-09-28T05:00:35.653Z,20.19
2022-09-28T05:01:36.058Z,20.20
2022-09-28T05:02:35.779Z,20.31
2022-09-28T05:03:35.731Z,20.31
2022-09-28T05:04:35.756Z,20.25
2022-09-28T05:05:35.786Z,20.30
2022-09-28T05:06:35.816Z,20.23
2022-09-28T05:07:35.842Z,20.25
2022-09-28T05:08:36.232Z,20.26
2022-09-28T05:09:38.383Z,20.25
2022-09-28T05:10:35.949Z,20.31
2022-09-28T05:11:35.961Z,20.23
2022-09-28T05:12:35.999Z,20.26
2022-09-28T05:14:36.347Z,20.22
2022-09-28T05:15:36.089Z,20.26
2022-09-28T05:16:36.200Z,20.26
2022-09-28T05:17:36.139Z,20.25
2022-09-28T05:18:36.173Z,20.22
2022-09-28T05:19:36.196Z,20.22
2022-09-28T05:20:36.229Z,20.23
2022-09-28T05:21:36.560Z,20.19
2022-09-28T05:22:36.285Z,20.23
2022-09-28T05:23:36.320Z,20.25
2022-09-28T05:24:36.346Z,20.26
2022-09-28T05:25:36.373Z,20.23
2022-09-28T05:26:36.422Z,20.27
2022-09-28T05:27:36.433Z,20.22
2022-09-28T05:28:36.764Z,20.22
2022-09-28T05:29:36.496Z,20.26
2022-09-28T05:30:36.523Z,20.22
2022-09-28T05:31:36.579Z,20.25
2022-09-28T05:32:36.587Z,20.22
2022-09-28T05:33:36.618Z,20.20
2022-09-28T05:34:36.641Z,20.27
2022-09-28T05:35:36.981Z,20.19
2022-09-28T05:36:36.704Z,20.26
2022-09-28T05:37:36.731Z,20.25
2022-09-28T05:38:36.762Z,20.27
2022-09-28T05:39:37.070Z,20.22
2022-09-28T05:40:36.909Z,20.26
2022-09-28T05:41:36.852Z,20.26
2022-09-28T05:42:37.202Z,20.34
2022-09-28T05:43:36.922Z,20.20
2022-09-28T05:44:36.937Z,20.22
2022-09-28T05:45:37.016Z,20.23
2022-09-28T05:46:37.002Z,20.33
2022-09-28T05:47:37.034Z,20.23
2022-09-28T05:48:37.357Z,20.26
2022-09-28T05:49:37.087Z,20.27
2022-09-28T05:50:37.132Z,20.25
2022-09-28T05:51:37.161Z,20.23
2022-09-28T05:52:37.178Z,20.25
2022-09-28T05:53:37.207Z,20.25
2022-09-28T05:54:37.539Z,20.25
2022-09-28T05:55:37.275Z,20.22
2022-09-28T05:56:37.298Z,20.26
2022-09-28T05:57:37.339Z,20.26
2022-09-28T05:58:37.382Z,20.33
2022-09-28T05:59:37.390Z,20.23
2022-09-28T06:00:37.729Z,20.23
2022-09-28T06:01:37.588Z,20.20
2022-09-28T06:02:37.571Z,20.30
2022-09-28T06:03:37.506Z,20.23
2022-09-28T06:04:37.537Z,20.20
2022-09-28T06:05:37.560Z,20.22
2022-09-28T06:06:37.594Z,20.31
2022-09-28T06:07:37.922Z,20.22
2022-09-28T06:08:37.655Z,20.27
2022-09-28T06:09:37.705Z,20.20
2022-09-28T06:10:37.717Z,20.19
2022-09-28T06:11:37.744Z,20.22
2022-09-28T06:12:37.777Z,20.22
2022-09-28T06:13:37.800Z,20.26
2022-09-28T06:14:38.151Z,20.17
2022-09-28T06:15:37.860Z,20.26
2022-09-28T06:16:43.008Z,20.15
2022-09-28T06:17:37.925Z,20.30
2022-09-28T06:18:38.099Z,20.17
2022-09-28T06:19:37.976Z,20.23
2022-09-28T06:20:38.008Z,20.20
2022-09-28T06:21:38.343Z,20.16
2022-09-28T06:23:40.319Z,20.16
2022-09-28T06:24:38.135Z,20.25
2022-09-28T06:25:38.157Z,20.22
2022-09-28T06:26:38.185Z,20.23
2022-09-28T06:27:38.216Z,20.25
2022-09-28T06:28:38.546Z,20.20
2022-09-28T06:29:38.275Z,20.30
2022-09-28T06:30:38.501Z,20.26
2022-09-28T06:31:38.334Z,20.30
2022-09-28T06:32:38.362Z,20.19
2022-09-28T06:33:38.397Z,20.30
2022-09-28T06:34:38.420Z,20.25
2022-09-28T06:35:38.757Z,20.25
2022-09-28T06:36:38.510Z,20.25
2022-09-28T06:37:38.517Z,20.25
2022-09-28T06:38:38.546Z,20.34
2022-09-28T06:39:38.578Z,20.33
2022-09-28T06:40:38.673Z,20.27
2022-09-28T06:41:38.632Z,20.34
2022-09-28T06:42:38.970Z,20.27
2022-09-28T06:43:38.697Z,20.38
2022-09-28T06:44:38.728Z,20.41
2022-09-28T06:45:38.775Z,20.31
2022-09-28T06:46:38.878Z,20.37
2022-09-28T06:47:38.812Z,20.33
2022-09-28T06:48:38.837Z,20.37
2022-09-28T06:49:38.875Z,20.35
2022-09-28T06:50:38.898Z,20.31
2022-09-28T06:51:38.929Z,20.40
2022-09-28T06:52:38.973Z,20.38
2022-09-28T06:53:38.993Z,20.34
2022-09-28T06:54:39.015Z,20.40
2022-09-28T06:55:39.361Z,20.38
2022-09-28T06:56:39.080Z,20.44
2022-09-28T06:57:39.111Z,20.37
2022-09-28T06:58:39.135Z,20.30
2022-09-28T06:59:39.168Z,20.35
2022-09-28T07:00:39.199Z,20.42
2022-09-28T07:01:39.289Z,20.48
2022-09-28T07:02:39.678Z,20.41
2022-09-28T07:03:39.288Z,20.38
2022-09-28T07:04:39.320Z,20.38
2022-09-28T07:05:39.344Z,20.42
2022-09-28T07:06:39.387Z,20.40
2022-09-28T07:07:39.402Z,20.40
2022-09-28T07:08:39.735Z,20.40
2022-09-28T07:09:43.709Z,20.41
2022-09-28T07:10:39.494Z,20.40
2022-09-28T07:11:39.527Z,20.44
2022-09-28T07:12:39.552Z,20.44
2022-09-28T07:13:50.205Z,20.40
2022-09-28T07:14:47.737Z,20.48
2022-09-28T07:15:39.643Z,20.48
2022-09-28T07:17:06.743Z,20.38
2022-09-28T07:17:52.881Z,20.46
2022-09-28T07:18:39.751Z,20.50
2022-09-28T07:19:39.774Z,20.42
2022-09-28T07:20:51.823Z,20.44
2022-09-28T07:21:39.817Z,20.44
2022-09-28T07:22:43.259Z,20.53
2022-09-28T07:23:50.792Z,20.46
2022-09-28T07:24:39.907Z,20.46
2022-09-28T07:25:39.938Z,20.42
2022-09-28T07:26:39.977Z,20.50
2022-09-28T07:27:40.298Z,20.50
2022-09-28T07:28:40.027Z,20.48
2022-09-28T07:29:40.053Z,20.54
2022-09-28T07:30:40.165Z,20.46
2022-09-28T07:31:40.113Z,20.42
2022-09-28T07:32:40.154Z,20.53
2022-09-28T07:33:40.177Z,20.44
2022-09-28T07:34:40.529Z,20.42
2022-09-28T07:35:40.233Z,20.42
2022-09-28T07:36:40.263Z,20.44
2022-09-28T07:37:40.295Z,20.54
2022-09-28T07:38:40.320Z,20.42
2022-09-28T07:39:40.351Z,20.44
2022-09-28T07:40:41.694Z,20.44
2022-09-28T07:41:40.714Z,20.44
2022-09-28T07:42:40.444Z,20.41
2022-09-28T07:43:40.469Z,20.56
2022-09-28T07:44:40.496Z,20.44
2022-09-28T07:45:40.580Z,20.41
2022-09-28T07:46:40.562Z,20.41
2022-09-28T07:47:40.593Z,20.44
2022-09-28T07:48:40.922Z,20.41
2022-09-28T07:49:40.648Z,20.48
2022-09-28T07:50:40.699Z,20.56
2022-09-28T07:51:40.711Z,20.53
2022-09-28T07:52:40.739Z,20.53
2022-09-28T07:53:40.767Z,20.44
2022-09-28T07:54:40.798Z,20.57
2022-09-28T07:55:41.197Z,20.60
2022-09-28T07:56:40.856Z,20.58
2022-09-28T07:57:40.890Z,20.60
2022-09-28T07:58:40.918Z,20.54
2022-09-28T07:59:40.949Z,20.57
2022-09-28T08:00:40.977Z,20.58
2022-09-28T08:01:41.063Z,20.63
2022-09-28T08:02:41.423Z,20.53
2022-09-28T08:03:41.064Z,20.58
2022-09-28T08:04:41.096Z,20.63
2022-09-28T08:05:41.126Z,20.66
2022-09-28T08:06:41.175Z,20.61
2022-09-28T08:07:41.181Z,20.60
2022-09-28T08:08:41.214Z,20.58
2022-09-28T08:09:41.581Z,20.60
2022-09-28T08:10:44.520Z,20.63
2022-09-28T08:11:41.302Z,20.63
2022-09-28T08:12:41.349Z,20.61
2022-09-28T08:13:41.398Z,20.63
2022-09-28T08:14:41.389Z,20.68
2022-09-28T08:15:41.438Z,20.73
2022-09-28T08:16:41.757Z,20.60
2022-09-28T08:17:41.482Z,20.61
2022-09-28T08:18:41.514Z,20.68
2022-09-28T08:19:41.544Z,20.68
2022-09-28T08:20:41.576Z,20.68
2022-09-28T08:21:41.604Z,20.68
2022-09-28T08:22:41.654Z,20.75
2022-09-28T08:23:41.962Z,20.71
2022-09-28T08:24:41.690Z,20.81
2022-09-28T08:25:41.729Z,20.72
2022-09-28T08:26:41.749Z,20.81
2022-09-28T08:27:41.787Z,20.79
2022-09-28T08:28:41.810Z,20.75
2022-09-28T08:29:41.841Z,20.72
2022-09-28T08:30:42.212Z,20.78
2022-09-28T08:31:41.904Z,20.78
2022-09-28T08:32:41.930Z,20.79
2022-09-28T08:33:41.976Z,20.75
2022-09-28T08:34:41.990Z,20.79
2022-09-28T08:35:42.019Z,20.78
2022-09-28T08:36:42.052Z,20.83
2022-09-28T08:37:45.878Z,20.81
2022-09-28T08:38:42.135Z,20.78
2022-09-28T08:39:42.143Z,20.75
2022-09-28T08:40:42.225Z,20.81
2022-09-28T08:41:42.204Z,20.76
2022-09-28T08:42:42.228Z,20.78
2022-09-28T08:43:42.262Z,20.76
2022-09-28T08:45:42.369Z,20.82
2022-09-28T08:46:42.356Z,20.81
2022-09-28T08:47:42.382Z,20.82
2022-09-28T08:48:42.641Z,20.85
2022-09-28T08:49:42.506Z,20.82
2022-09-28T08:50:42.469Z,20.87
2022-09-28T08:51:42.804Z,20.83
2022-09-28T08:52:42.527Z,20.83
2022-09-28T08:53:42.560Z,20.81
2022-09-28T08:54:42.615Z,20.87
2022-09-28T08:55:42.621Z,20.87
2022-09-28T08:56:42.651Z,20.88
2022-09-28T08:57:42.981Z,20.88
2022-09-28T08:58:42.709Z,20.88
2022-09-28T08:59:42.750Z,20.88
2022-09-28T09:00:42.763Z,20.88
2022-09-28T09:01:42.862Z,20.82
2022-09-28T09:02:42.916Z,20.83
2022-09-28T09:03:43.156Z,20.83
2022-09-28T09:04:42.889Z,20.91
2022-09-28T09:05:42.921Z,20.83
2022-09-28T09:06:42.948Z,20.88
2022-09-28T09:07:42.979Z,20.81
2022-09-28T09:08:43.006Z,20.85
2022-09-28T09:09:43.367Z,20.87
2022-09-28T09:10:43.175Z,20.81
2022-09-28T09:11:43.108Z,20.81
2022-09-28T09:12:43.171Z,20.83
2022-09-28T09:13:43.177Z,20.88
2022-09-28T09:14:43.190Z,20.83
2022-09-28T09:15:43.274Z,20.82
2022-09-28T09:16:43.605Z,20.82
2022-09-28T09:17:43.278Z,20.85
2022-09-28T09:18:43.325Z,20.88
2022-09-28T09:19:43.340Z,20.90
2022-09-28T09:20:43.381Z,20.94
2022-09-28T09:21:43.417Z,20.88
2022-09-28T09:22:43.447Z,20.97
2022-09-28T09:23:43.768Z,20.90
2022-09-28T09:24:43.487Z,20.90
2022-09-28T09:25:43.524Z,20.90
2022-09-28T09:26:43.567Z,20.90
2022-09-28T09:27:43.583Z,20.87
2022-09-28T09:28:43.613Z,20.91
2022-09-28T09:29:43.643Z,20.83
2022-09-28T09:30:43.998Z,20.91
2022-09-28T09:31:43.697Z,20.90
2022-09-28T09:32:43.731Z,20.94
2022-09-28T09:33:43.768Z,20.96
2022-09-28T09:34:43.798Z,20.98
2022-09-28T09:35:43.825Z,20.97
2022-09-28T09:36:43.850Z,21.00
2022-09-28T09:37:44.178Z,20.91
2022-09-28T09:38:43.915Z,21.03
2022-09-28T09:39:43.943Z,20.88
2022-09-28T09:40:44.012Z,20.98
2022-09-28T09:41:44.010Z,20.87
2022-09-28T09:42:44.047Z,20.90
2022-09-28T09:43:44.061Z,20.91
2022-09-28T09:44:44.390Z,20.93
2022-09-28T09:45:44.174Z,20.96
2022-09-28T09:46:44.153Z,21.00
2022-09-28T09:47:44.183Z,20.85
2022-09-28T09:48:44.209Z,21.00
2022-09-28T09:49:44.246Z,20.90
2022-09-28T09:50:44.272Z,20.94
2022-09-28T09:51:44.600Z,20.97
2022-09-28T09:52:44.491Z,20.98
2022-09-28T09:53:44.362Z,20.96
2022-09-28T09:54:44.400Z,20.98
2022-09-28T09:55:44.427Z,20.96
2022-09-28T09:56:44.451Z,21.00
2022-09-28T09:57:44.485Z,20.97
2022-09-28T09:58:44.831Z,20.98
2022-09-28T09:59:44.556Z,20.93
2022-09-28T10:00:44.571Z,20.98
2022-09-28T10:01:44.663Z,21.01
2022-09-28T10:02:44.678Z,20.98
2022-09-28T10:03:44.662Z,20.94
2022-09-28T10:04:44.694Z,20.97
2022-09-28T10:05:44.826Z,20.97
2022-09-28T10:06:44.752Z,20.93
2022-09-28T10:07:44.801Z,20.97
2022-09-28T10:08:44.837Z,20.88
2022-09-28T10:09:44.844Z,21.03
2022-09-28T10:10:44.876Z,20.85
2022-09-28T10:11:45.209Z,20.90
2022-09-28T10:12:44.934Z,20.88
2022-09-28T10:13:44.974Z,20.98
2022-09-28T10:14:45.038Z,20.94
2022-09-28T10:15:45.021Z,20.88
2022-09-28T10:16:45.130Z,20.90
2022-09-28T10:17:45.086Z,21.01
2022-09-28T10:18:45.421Z,20.98
2022-09-28T10:19:45.146Z,20.97
2022-09-28T10:20:45.180Z,20.97
2022-09-28T10:21:45.205Z,20.88
2022-09-28T10:22:45.237Z,20.91
2022-09-28T10:23:45.266Z,20.83
2022-09-28T10:24:45.596Z,21.01
2022-09-28T10:25:45.341Z,20.93
2022-09-28T10:26:45.366Z,20.96
2022-09-28T10:27:45.397Z,20.97
2022-09-28T10:28:45.421Z,20.93
2022-09-28T10:29:45.448Z,20.94
2022-09-28T10:30:45.965Z,20.94
2022-09-28T10:31:45.513Z,20.94
2022-09-28T10:32:45.543Z,20.96
2022-09-28T10:33:45.572Z,20.94
2022-09-28T10:34:50.186Z,21.03
2022-09-28T10:35:45.631Z,20.87
2022-09-28T10:36:45.963Z,20.93
2022-09-28T10:37:45.689Z,20.94
2022-09-28T10:38:45.727Z,21.01
2022-09-28T10:39:45.756Z,20.97
2022-09-28T10:40:45.925Z,21.03
2022-09-28T10:41:45.809Z,20.98
2022-09-28T10:42:45.841Z,20.98
2022-09-28T10:43:49.753Z,20.98
2022-09-28T10:44:45.906Z,20.98
2022-09-28T10:45:45.955Z,21.01
2022-09-28T10:46:45.981Z,21.00
2022-09-28T10:47:46.056Z,20.88
2022-09-28T10:48:46.036Z,20.94
2022-09-28T10:49:47.395Z,20.93
2022-09-28T10:50:46.388Z,20.98
2022-09-28T10:52:46.144Z,20.97
2022-09-28T10:53:46.176Z,20.93
2022-09-28T10:54:46.202Z,20.96
2022-09-28T10:55:46.239Z,21.01
2022-09-28T10:56:46.264Z,20.97
2022-09-28T10:57:46.605Z,20.94
2022-09-28T10:58:46.344Z,20.93
2022-09-28T10:59:46.360Z,20.96
2022-09-28T11:00:46.387Z,20.97
2022-09-28T11:01:46.505Z,20.97
2022-09-28T11:02:46.534Z,21.03
2022-09-28T11:03:46.475Z,21.00
2022-09-28T11:04:46.807Z,21.01
2022-09-28T11:05:46.549Z,21.03
2022-09-28T11:06:46.639Z,20.98
2022-09-28T11:07:46.601Z,21.03
2022-09-28T11:08:46.634Z,21.06
2022-09-28T11:09:48.598Z,21.16
2022-09-28T11:10:46.688Z,21.03
2022-09-28T11:11:47.032Z,21.15
2022-09-28T11:12:46.748Z,21.06
2022-09-28T11:13:46.780Z,21.11
2022-09-28T11:14:46.809Z,21.15
2022-09-28T11:15:46.842Z,21.09
2022-09-28T11:16:46.960Z,21.18
2022-09-28T11:17:46.903Z,21.13
2022-09-28T11:18:47.251Z,21.16
2022-09-28T11:19:46.968Z,21.19
2022-09-28T11:20:46.989Z,21.15
2022-09-28T11:21:47.033Z,21.22
2022-09-28T11:22:49.440Z,21.21
2022-09-28T11:23:47.085Z,21.21
2022-09-28T11:24:47.116Z,21.22
2022-09-28T11:25:47.445Z,21.13
2022-09-28T11:26:47.179Z,21.13
2022-09-28T11:27:47.254Z,21.15
2022-09-28T11:28:47.237Z,21.15
2022-09-28T11:29:47.270Z,21.19
2022-09-28T11:30:47.347Z,21.18
2022-09-28T11:31:47.337Z,21.19
2022-09-28T11:32:47.656Z,21.24
2022-09-28T11:33:47.390Z,21.24
2022-09-28T11:34:59.111Z,21.27
2022-09-28T11:35:47.501Z,21.18
2022-09-28T11:36:47.479Z,21.18
2022-09-28T11:37:47.512Z,21.15
2022-09-28T11:38:47.541Z,21.16
2022-09-28T11:39:47.894Z,21.18
2022-09-28T11:40:47.685Z,21.24
2022-09-28T11:41:47.638Z,21.22
2022-09-28T11:42:47.662Z,21.13
2022-09-28T11:43:47.694Z,21.27
2022-09-28T11:44:47.725Z,21.21
2022-09-28T11:45:47.921Z,21.19
2022-09-28T11:47:48.117Z,21.21
2022-09-28T11:48:47.853Z,21.30
2022-09-28T11:49:47.883Z,21.24
2022-09-28T11:50:47.937Z,21.18
2022-09-28T11:51:47.946Z,21.19
2022-09-28T11:52:47.982Z,21.24
2022-09-28T11:53:47.998Z,21.24
2022-09-28T11:54:48.330Z,21.30
2022-09-28T11:55:48.063Z,21.36
2022-09-28T11:56:48.092Z,21.27
2022-09-28T11:57:48.140Z,21.24
2022-09-28T11:58:48.157Z,21.26
2022-09-28T11:59:48.179Z,21.33
2022-09-28T12:00:48.214Z,21.22
2022-09-28T12:01:48.546Z,21.26
2022-09-28T12:02:48.374Z,21.31
2022-09-28T12:03:48.425Z,21.16
2022-09-28T12:04:48.342Z,21.18
2022-09-28T12:05:48.379Z,21.16
2022-09-28T12:06:48.416Z,21.28
2022-09-28T12:07:48.423Z,21.31
2022-09-28T12:08:48.756Z,21.26
2022-09-28T12:09:48.487Z,21.27
2022-09-28T12:10:48.522Z,21.24
2022-09-28T12:12:48.580Z,21.30
2022-09-28T12:13:48.608Z,21.21
2022-09-28T12:14:48.645Z,21.21
2022-09-28T12:16:17.113Z,21.30
2022-09-28T12:17:07.301Z,21.22
2022-09-28T12:17:48.776Z,21.34
2022-09-28T12:18:48.786Z,21.34
2022-09-28T12:19:48.800Z,21.30
2022-09-28T12:20:48.822Z,21.37
2022-09-28T12:21:48.855Z,21.31
2022-09-28T12:22:49.204Z,21.36
2022-09-28T12:23:48.914Z,21.31
2022-09-28T12:24:48.944Z,21.30
2022-09-28T12:25:48.985Z,21.31
2022-09-28T12:26:49.027Z,21.40
2022-09-28T12:27:49.040Z,21.37
2022-09-28T12:28:49.069Z,21.40
2022-09-28T12:29:49.403Z,21.40
2022-09-28T12:30:49.193Z,21.37
2022-09-28T12:31:49.160Z,21.34
2022-09-28T12:32:49.199Z,21.26
2022-09-28T12:33:49.221Z,21.33
2022-09-28T12:34:49.249Z,21.34
2022-09-28T12:35:49.281Z,21.34
2022-09-28T12:36:49.613Z,21.37
2022-09-28T12:37:53.896Z,21.38
2022-09-28T12:39:08.426Z,21.37
2022-09-28T12:39:57.413Z,21.34
2022-09-28T12:40:49.646Z,21.37
2022-09-28T12:41:49.470Z,21.33
2022-09-28T12:42:49.799Z,21.30
2022-09-28T12:43:49.531Z,21.30
2022-09-28T12:44:49.569Z,21.30
2022-09-28T12:46:10.611Z,21.31
2022-09-28T12:46:49.693Z,21.28
2022-09-28T12:47:49.657Z,21.22
2022-09-28T12:48:58.405Z,21.22
2022-09-28T12:50:37.175Z,21.26
2022-09-28T12:50:56.820Z,21.26
2022-09-28T12:51:49.785Z,21.22
2022-09-28T12:52:49.807Z,21.30
2022-09-28T12:53:49.835Z,21.19
2022-09-28T12:54:50.192Z,21.31
2022-09-28T12:55:49.898Z,21.30
2022-09-28T12:56:49.926Z,21.28
2022-09-28T12:57:49.959Z,21.30
2022-09-28T12:58:49.992Z,21.36
2022-09-28T12:59:50.022Z,21.21
2022-09-28T13:00:50.048Z,21.34